Terminal Aerodrome Forecast
Issued by NWS

Home | Current Version | Previous Version | Text Only | Print | Product List | Glossary On
Versions: 1 2 3 4 5 6 7 8 9 10 11 12 13
000
FTUS42 TJSJ 221100
TAFISX
TAF
TISX 221125Z 2212/2312 04005KT P6SM VCSH FEW022 SCT040
      TEMPO 2212/2214 VRB12KT 5SM -SHRA BKN022
     FM221400 09012KT P6SM SCT025 SCT050 SCT100
      TEMPO 2218/2222 VRB12G20KT 3SM +SHRA BKN022
     FM222230 08010KT P6SM VCSH SCT025 BKN050 BKN100=

USA.gov is the U.S. government's official web portal to all federal, state and local government web resources and services.